Date,TemperatureHighF,TemperatureAvgF,TemperatureLowF,DewpointHighF,DewpointAvgF,DewpointLowF,HumidityHigh,HumidityAvg,HumidityLow,PressureMaxIn,PressureMinIn,WindSpeedMaxMPH,WindSpeedAvgMPH,GustSpeedMaxMPH,PrecipitationSumIn
2013-3-1,69.6,53.4,42.9,50.4,46.2,41.8,99,79,45,30.43,30.24,8,3,10,0.00
2013-3-2,64.7,54.1,45.4,51.0,46.9,43.8,95,78,58,30.24,30.06,9,3,9,0.00
2013-3-3,59.9,51.4,42.5,47.2,45.3,41.2,95,80,57,30.08,30.03,15,6,19,0.00
2013-3-4,55.8,45.1,39.2,45.3,41.2,36.8,96,87,63,30.15,30.06,12,4,14,0.00
2013-3-5,52.4,44.2,34.9,44.7,40.0,34.1,98,86,69,30.07,29.81,13,4,19,0.29
2013-3-6,52.3,46.8,37.2,45.8,40.0,36.2,96,78,56,30.06,29.81,21,8,21,0.21
2013-3-7,50.9,43.2,35.3,42.8,39.1,34.8,98,87,61,30.00,29.87,7,3,10,0.01
2013-3-8,52.6,46.0,41.1,43.1,39.7,35.4,90,79,67,30.03,29.85,16,8,22,0.00
2013-3-9,62.7,50.5,38.5,43.4,39.2,36.1,91,68,41,30.30,30.05,11,6,12,0.00
2013-3-10,66.2,50.4,38.2,46.1,39.5,35.8,93,69,36,30.34,30.24,10,4,13,0.00
2013-3-11,68.2,50.1,36.6,49.0,41.3,35.0,94,75,40,30.26,30.10,10,4,14,0.00
2013-3-12,71.2,51.0,39.2,55.0,45.2,38.9,100,83,45,30.16,30.07,12,4,12,0.01
2013-3-13,74.0,54.8,39.5,53.0,46.6,38.5,98,77,44,30.16,30.06,10,3,12,0.00
2013-3-14,65.6,53.5,43.6,51.6,44.8,40.5,96,74,43,30.16,30.08,14,5,16,0.00
2013-3-15,68.0,52.2,42.8,50.7,44.8,40.6,92,78,46,30.13,30.03,12,6,19,0.00
2013-3-16,63.6,52.1,41.3,48.6,43.7,40.2,96,75,51,30.11,30.03,14,8,18,0.00
2013-3-17,62.8,51.2,43.4,46.3,40.5,38.1,89,68,40,30.15,30.05,15,6,21,0.00
2013-3-18,61.0,46.8,38.4,44.9,40.2,36.8,94,79,49,30.11,30.03,10,4,15,0.00
2013-3-19,60.8,51.1,42.8,44.5,40.4,36.6,91,68,50,30.13,30.06,9,3,11,0.02
2013-3-20,54.3,51.4,46.9,52.3,49.5,44.4,96,93,88,30.14,30.07,8,4,11,0.13
2013-3-21,57.8,46.0,38.4,45.5,40.2,36.6,95,81,57,30.13,30.01,14,7,19,0.00
2013-3-22,60.9,49.0,41.0,39.9,36.5,31.2,90,64,34,30.12,30.03,12,6,13,0.00
2013-3-23,64.7,48.8,38.0,44.2,37.9,34.8,90,69,35,30.14,30.05,11,5,12,0.00
2013-3-24,67.1,50.5,38.6,47.9,41.6,36.8,94,74,48,30.08,29.97,12,4,13,0.00
2013-3-25,51.6,45.5,39.2,42.8,41.0,37.7,96,84,71,30.03,29.95,14,6,18,0.00
2013-3-26,60.3,49.2,42.5,46.1,42.3,40.1,92,78,55,30.00,29.94,12,5,12,0.00
2013-3-27,56.8,49.9,44.3,50.2,46.0,42.2,95,87,73,30.01,29.95,6,2,10,0.00
2013-3-28,62.1,52.4,46.2,53.3,48.7,45.1,97,88,70,30.08,30.00,6,2,7,0.00
2013-3-29,71.0,55.6,41.3,54.0,48.3,40.8,100,79,50,30.09,30.00,8,3,10,0.00
2013-3-30,67.0,54.8,48.9,53.8,49.3,45.1,95,83,52,30.07,29.99,8,3,8,0.07
2013-3-31,59.3,53.6,50.1,55.7,50.6,48.7,98,90,74,30.06,30.00,11,2,11,0.23